Kogalym, Russia
Current Conditions -  °F | °C
As of 5:30 PM on Friday 28 Nov 2014 (Local Time) from USRR Reporting Station
Broken Clouds Broken Clouds  
Wind Chill: -33°   Ceiling: 14000
Heat Index: -17°   Visibility: 4mi
Dew Point: -24°   Wind: 7mph
Humidity: 70%   Direction: 220°SW
Pressure: 30.5"   Gusts: NA
Location:  62.03°N, 74.5°E
Report Text: USRR 281230Z 22003MPS 7000 BKN140 M27/M31 Q1033 NOSIG RMKQFE769 25////60
Loading
Personal Weather Stations






























Interactive Weather Map New forecast layout! Learn more

10-Day Weather Forecast

Advertisements
Track Severe Weather on mobile